Data ze zpráv METAR

Na této stránce "Data ze zpráv METAR" si můžete prohlédnout aktuální data o počasí z českých letišť.

LKKB - Kbely, Czech Republic
Distance from station: JJZ 98km
Aktualizováno v: 16/08/2018 02:00
Jasno
Jasno
 Vítr od calm
Vítr: Bezvětří
Teplota vzduchu: 19°C
Rosný bod: 11°C
Vlhkost: 60%
Tlak vzduchu: 1020 hPa
Souhrn: Jasno
Visibility: greater than 10 km
2018/08/16 00:00 LKKB 160000Z 00000KT CAVOK 19/11 Q1020
LKPR - Prague/Ruzyne, Czech Republic
Distance from station: JJZ 108km
Aktualizováno v: 16/08/2018 02:00
Jasno
Jasno
 Vítr od VJV
Vítr: VJV 6 km/h
Teplota vzduchu: 17°C
Rosný bod: 10°C
Vlhkost: 64%
Tlak vzduchu: 1020 hPa
Souhrn: Jasno
Visibility: greater than 10 km
2018/08/16 00:00 LKPR 160000Z 11003KT CAVOK 17/10 Q1020 NOSIG
 
LKPD - Pardubice, Czech Republic
Distance from station: JJV 111km
Aktualizováno v: 16/08/2018 02:00
Jasno
Jasno
 Vítr od varies
Vítr: varies 2 km/h
Teplota vzduchu: 17°C
Rosný bod: 10°C
Vlhkost: 64%
Tlak vzduchu: 1020 hPa
Souhrn: Jasno
Visibility: greater than 10 km
2018/08/16 00:00 LKPD 160000Z VRB01KT CAVOK 17/10 Q1020 RMK BLU
LKCV - Caslav, Czech Republic
Distance from station: JJV 113km
Aktualizováno v: 16/08/2018 00:00
NOT Current
Jasno
Jasno
 Vítr od JJZ
Vítr: JJZ 6 km/h
Teplota vzduchu: 17°C
Rosný bod: 13°C
Vlhkost: 77%
Tlak vzduchu: 1020 hPa
Souhrn: Jasno
Visibility: greater than 10 km
2018/08/15 22:00 LKCV 152200Z 20003KT CAVOK 17/13 Q1020 NOSIG
 
LKKV - Karlovy Vary, Czech Republic
Distance from station: ZJZ 173km
Aktualizováno v: 16/08/2018 02:00
Polojasno
Polojasno
 Vítr od varies
Vítr: varies 2 km/h
Teplota vzduchu: 12°C
Rosný bod: 11°C
Vlhkost: 94%
Tlak vzduchu: 1021 hPa
Clouds: Polojasno
Visibility: 10 km
Cloud details: Polojasno 1402 m
2018/08/16 00:00 LKKV 160000Z VRB01KT 9999 SCT046 12/11 Q1021
LKLN - Plzen Line, Czech Republic
Distance from station: JZ 189km
Aktualizováno v: 16/08/2018 02:00
Jasno
Jasno
 Vítr od calm
Vítr: Bezvětří
Teplota vzduchu: 13°C
Rosný bod: 11°C
Vlhkost: 88%
Tlak vzduchu: 1021 hPa
Souhrn: Jasno
Visibility: greater than 10 km
2018/08/16 00:00 LKLN 160000Z AUTO 00000KT CAVOK 13/11 Q1021
 
LKNA - Namest, Czech Republic
Distance from station: JJV 209km
Aktualizováno v: 16/08/2018 02:00
Jasno
Jasno
 Vítr od SZ
Vítr: SZ 7 km/h
Teplota vzduchu: 15°C
Rosný bod: 10°C
Vlhkost: 72%
Tlak vzduchu: 1021 hPa
Souhrn: Jasno
Visibility: greater than 10 km
2018/08/16 00:00 LKNA 160000Z 31004KT 280V350 CAVOK 15/10 Q1021 RMK BLU
LKTB - Brno/Turany, Czech Republic
Distance from station: JJV 230km
Aktualizováno v: 16/08/2018 02:00
Jasno
Jasno
 Vítr od SZ
Vítr: SZ 6 km/h
Teplota vzduchu: 18°C
Rosný bod: 11°C
Vlhkost: 64%
Tlak vzduchu: 1020 hPa
Souhrn: Jasno
Visibility: greater than 10 km
2018/08/16 00:00 LKTB 160000Z 32003KT CAVOK 18/11 Q1020 NOSIG